Latest Weather Observations for Noarlunga

IDS60901

Issued at 4:21 pm CDT Friday 24 January 2020 (issued every 10 minutes, with the page automatically refreshed every 10 minutes)

About weather observations | Map of Adelaide area stations | Latest observations for Adelaide area | Other Formats
Station Details ID: 023885 Name: NOARLUNGA Lat: -35.16 Lon: 138.51 Height: 55.0 m
Data from the previous 72 hours. | See also: Recent months at Noarlunga
Date/Time
CDT
Temp
°C
App
Temp
°C
Dew
Point
°C
Rel
Hum
%
Delta-T
°C
Wind Press
QNH
hPa
Press
MSL
hPa
Rain since
9am
mm
Dir  Spd
km/h
Gust
km/h
Spd
kts
Gust
kts
24/04:00pm 19.7 18.3 12.2 62 4.2 W 11 19 6 10 - - 0.0
24/03:30pm 19.8 17.7 11.3 58 4.7 NW 13 20 7 11 - - 0.0
24/03:00pm 21.1 19.4 11.2 53 5.5 WNW 11 24 6 13 - - 0.0
24/02:30pm 21.4 18.7 10.3 49 6.0 WNW 15 22 8 12 - - 0.0
24/02:00pm 20.8 18.2 10.6 52 5.6 NW 15 26 8 14 - - 0.0
24/01:30pm 20.3 18.0 10.4 53 5.4 NNW 13 24 7 13 - - 0.0
24/01:00pm 20.7 18.2 11.1 54 5.3 NW 15 24 8 13 - - 0.0
24/12:30pm 20.2 17.9 10.6 54 5.2 NW 13 19 7 10 - - 0.0
24/12:00pm 18.6 16.0 10.7 60 4.3 W 15 24 8 13 - - 0.0
24/11:30am 18.1 15.2 11.0 63 3.8 WNW 17 28 9 15 - - 0.0
24/11:00am 18.3 15.2 10.2 59 4.3 WNW 17 24 9 13 - - 0.0
24/10:30am 18.3 14.6 9.4 56 4.7 WNW 19 26 10 14 - - 0.0
24/10:00am 18.7 16.3 8.7 52 5.2 WNW 11 22 6 12 - - 0.0
24/09:30am 18.3 15.4 8.3 52 5.2 WNW 13 20 7 11 - - 0.0
24/09:00am 18.1 15.0 8.7 54 4.9 WNW 15 22 8 12 - - 0.0
24/08:30am 18.1 15.3 8.4 53 5.0 W 13 24 7 13 - - 0.0
24/08:00am 17.7 15.0 8.8 56 4.6 W 13 20 7 11 - - 0.0
24/07:30am 17.0 14.8 9.2 60 4.1 W 11 17 6 9 - - 0.0
24/07:00am 16.8 14.4 8.8 59 4.1 WSW 11 17 6 9 - - 0.0
24/06:30am 16.4 14.8 10.3 67 3.2 WSW 9 15 5 8 - - 0.0
24/06:00am 16.2 14.6 10.1 67 3.2 WNW 9 19 5 10 - - 0.0
24/05:30am 16.1 14.1 8.8 62 3.7 WSW 9 17 5 9 - - 0.0
24/05:00am 15.8 14.0 8.1 60 3.9 WSW 7 13 4 7 - - 0.0
24/04:30am 16.1 13.1 7.6 57 4.3 WSW 13 22 7 12 - - 0.0
24/04:00am 16.2 13.4 8.7 61 3.8 WSW 13 26 7 14 - - 0.0
24/03:30am 16.3 13.2 8.8 61 3.9 WSW 15 24 8 13 - - 0.0
24/03:00am 15.9 13.6 8.9 63 3.6 WSW 11 17 6 9 - - 0.0
24/02:30am 16.3 13.4 8.3 59 4.1 WSW 13 24 7 13 - - 0.0
24/02:00am 16.3 13.4 9.7 65 3.5 WSW 15 24 8 13 - - 0.0
24/01:30am 16.6 13.8 8.6 59 4.1 W 13 24 7 13 - - 0.0
24/01:00am 16.3 13.3 7.5 56 4.4 WSW 13 22 7 12 - - 0.0
24/12:30am 16.6 12.6 8.1 57 4.3 W 19 30 10 16 - - 0.0
24/12:00am 16.7 12.7 8.4 58 4.2 WSW 19 32 10 17 - - 0.0
 
Date/Time
CDT
Temp
°C
App
Temp
°C
Dew
Point
°C
Rel
Hum
%
Delta-T
°C
Wind Press
QNH
hPa
Press
MSL
hPa
Rain since
9am
mm
Dir  Spd
km/h
Gust
km/h
Spd
kts
Gust
kts
23/11:30pm 16.5 12.6 7.2 54 4.6 WSW 17 28 9 15 - - 0.0
23/11:00pm 16.9 13.2 7.8 55 4.6 W 17 33 9 18 - - 0.0
23/10:30pm 16.7 13.3 7.6 55 4.6 W 15 22 8 12 - - 0.0
23/10:00pm 16.6 12.9 7.8 56 4.4 W 17 28 9 15 - - 0.0
23/09:30pm 16.5 12.8 8.0 57 4.3 W 17 28 9 15 - - 0.0
23/09:00pm 16.4 12.2 7.3 55 4.5 W 19 30 10 16 - - 0.0
23/08:30pm 16.6 12.8 7.5 55 4.6 W 17 30 9 16 - - 0.0
23/08:00pm 17.2 12.9 7.0 51 5.1 WSW 19 33 10 18 - - 0.0
23/07:30pm 17.8 13.4 7.2 50 5.3 W 20 32 11 17 - - 0.0
23/07:00pm 18.3 13.8 7.1 48 5.6 WSW 20 32 11 17 - - 0.0
23/06:30pm 18.5 13.6 7.0 47 5.8 W 22 35 12 19 - - 0.0
23/06:00pm 18.8 13.5 6.6 45 6.1 WSW 24 37 13 20 - - 0.0
23/05:30pm 18.7 13.3 7.8 49 5.6 W 26 44 14 24 - - 0.0
23/05:00pm 19.2 13.1 6.7 44 6.3 W 28 43 15 23 - - 0.0
23/04:30pm 19.4 13.9 5.8 41 6.7 W 24 41 13 22 - - 0.0
23/04:00pm 19.0 13.9 6.2 43 6.4 W 22 37 12 20 - - 0.0
23/03:30pm 19.7 13.4 5.7 40 6.9 W 28 41 15 22 - - 0.0
23/03:00pm 20.1 15.0 6.1 40 7.0 W 22 39 12 21 - - 0.0
23/02:30pm 19.4 14.2 5.5 40 6.8 W 22 35 12 19 - - 0.0
23/02:00pm 19.4 13.3 4.7 38 7.1 W 26 39 14 21 - - 0.0
23/01:30pm 19.5 13.4 6.6 43 6.5 WSW 28 39 15 21 - - 0.0
23/01:21pm 19.4 13.3 6.5 43 6.5 W 28 46 15 25 - - 0.0
23/01:00pm 19.6 14.4 7.4 45 6.2 W 24 43 13 23 - - 0.0
23/12:30pm 18.7 14.2 8.7 52 5.2 WSW 22 33 12 18 - - 0.0
23/12:00pm 18.6 12.4 7.7 49 5.6 W 30 46 16 25 - - 0.0
23/11:44am 18.3 12.2 6.8 47 5.8 W 28 46 15 25 - - 0.0
23/11:30am 17.6 11.6 7.1 50 5.3 WSW 28 44 15 24 - - 0.0
23/11:02am 18.1 12.0 6.6 47 5.7 W 28 48 15 26 - - 0.0
23/11:00am 18.2 12.0 6.1 45 6.0 W 28 44 15 24 - - 0.0
23/10:30am 17.8 11.5 7.5 51 5.2 W 30 50 16 27 - - 0.0
23/10:00am 17.6 11.2 7.1 50 5.3 W 30 50 16 27 - - 0.0
23/09:30am 17.5 10.8 7.5 52 5.0 W 32 50 17 27 - - 0.0
23/09:00am 17.0 10.4 7.9 55 4.6 W 32 54 17 29 - - 3.8
23/08:33am 16.1 10.9 10.2 68 3.1 W 28 57 15 31 - - 3.8
23/08:30am 16.6 12.6 11.7 73 2.7 W 24 44 13 24 - - 3.8
23/08:06am 16.4 10.9 10.5 68 3.1 W 30 48 16 26 - - 3.8
23/08:00am 16.4 11.3 10.5 68 3.1 W 28 44 15 24 - - 3.8
23/07:30am 14.9 9.7 11.7 81 1.7 W 30 54 16 29 - - 3.8
23/07:00am 14.8 9.9 12.5 86 1.3 NW 30 48 16 26 - - 3.6
23/06:41am 16.8 11.5 11.3 70 3.0 NW 30 48 16 26 - - 2.0
23/06:30am 16.9 11.0 10.5 66 3.4 NW 32 48 17 26 - - 1.8
23/06:15am 16.8 10.9 10.6 67 3.3 NW 32 54 17 29 - - 1.8
23/06:00am 16.5 11.7 11.6 73 2.7 NW 28 44 15 24 - - 1.8
23/05:30am 16.7 11.9 11.8 73 2.7 NW 28 52 15 28 - - 1.8
23/05:28am 16.6 11.8 11.7 73 2.7 NW 28 52 15 28 - - 1.8
23/05:00am 16.2 12.8 12.4 78 2.1 NW 22 37 12 20 - - 1.8
23/04:30am 16.0 12.8 12.0 77 2.2 NW 20 35 11 19 - - 1.8
23/04:00am 15.7 12.4 11.5 76 2.3 NW 20 33 11 18 - - 1.8
23/03:30am 15.3 13.4 10.5 73 2.5 NW 11 20 6 11 - - 1.8
23/03:00am 14.9 12.9 11.5 80 1.8 NNW 13 19 7 10 - - 1.8
23/02:30am 14.4 12.8 11.7 84 1.5 NW 11 19 6 10 - - 1.8
23/02:00am 13.9 10.5 11.1 83 1.5 WNW 20 32 11 17 - - 1.8
23/01:30am 14.7 13.5 11.7 82 1.6 WNW 9 19 5 10 - - 1.2
23/01:00am 13.9 11.9 11.4 85 1.3 W 13 24 7 13 - - 1.2
23/12:34am 15.1 10.3 11.5 79 1.9 W 28 48 15 26 - - 0.0
23/12:30am 16.3 12.3 11.7 74 2.5 WNW 24 48 13 26 - - 0.0
23/12:27am 17.8 15.0 11.4 66 3.5 WNW 17 43 9 23 - - 0.0
23/12:00am 16.8 16.1 12.1 74 2.6 NW 7 17 4 9 - - 0.0
 
Date/Time
CDT
Temp
°C
App
Temp
°C
Dew
Point
°C
Rel
Hum
%
Delta-T
°C
Wind Press
QNH
hPa
Press
MSL
hPa
Rain since
9am
mm
Dir  Spd
km/h
Gust
km/h
Spd
kts
Gust
kts
22/11:30pm 16.4 15.6 12.8 79 2.0 NW 9 17 5 9 - - 0.0
22/11:00pm 15.7 14.0 12.5 81 1.8 WNW 13 24 7 13 - - 0.0
22/10:30pm 17.8 15.2 10.7 63 3.8 WNW 15 28 8 15 - - 0.0
22/10:00pm 16.8 15.1 12.3 75 2.5 W 13 22 7 12 - - 0.0
22/09:30pm 17.0 13.5 12.3 74 2.6 WSW 22 33 12 18 - - 0.0
22/09:00pm 18.3 15.6 10.2 59 4.3 W 15 24 8 13 - - 0.0
22/08:30pm 18.4 15.6 10.0 58 4.5 W 15 24 8 13 - - 0.0
22/08:00pm 18.4 15.5 9.5 56 4.7 W 15 24 8 13 - - 0.0
22/07:30pm 18.5 14.9 9.8 57 4.6 W 19 30 10 16 - - 0.0
22/07:00pm 18.6 15.3 9.4 55 4.9 WSW 17 28 9 15 - - 0.0
22/06:30pm 18.9 13.7 8.8 52 5.3 WSW 26 39 14 21 - - 0.0
22/06:00pm 19.2 15.9 9.4 53 5.2 WSW 17 30 9 16 - - 0.0
22/05:30pm 19.2 15.4 9.9 55 5.0 WSW 20 32 11 17 - - 0.0
22/05:00pm 19.4 15.8 9.9 54 5.1 W 19 30 10 16 - - 0.0
22/04:30pm 19.4 16.8 11.9 62 4.2 W 17 24 9 13 - - 0.0
22/04:00pm 19.9 17.4 12.4 62 4.2 W 17 28 9 15 - - 0.0
22/03:30pm 19.5 16.7 11.3 59 4.5 W 17 28 9 15 - - 0.0
22/03:00pm 19.9 17.6 11.7 59 4.5 W 15 26 8 14 - - 0.0
22/02:30pm 20.4 18.1 11.6 57 4.9 W 15 22 8 12 - - 0.0
22/02:00pm 20.5 17.1 10.6 53 5.4 W 19 30 10 16 - - 0.0
22/01:30pm 21.2 17.7 11.0 52 5.6 W 20 32 11 17 - - 0.0
22/01:00pm 21.3 18.1 11.9 55 5.3 W 20 30 11 16 - - 0.0
22/12:30pm 21.3 19.0 13.0 59 4.7 W 17 30 9 16 - - 0.0
22/12:00pm 20.9 18.3 13.1 61 4.5 WSW 19 32 10 17 - - 0.0
22/11:30am 21.7 19.1 13.9 61 4.5 W 20 32 11 17 - - 0.0
22/11:00am 21.1 19.1 15.4 70 3.4 W 20 30 11 16 - - 0.0
22/10:30am 22.4 20.0 14.3 60 4.8 W 20 35 11 19 - - 0.0
22/10:00am 22.9 21.0 13.1 54 5.7 WNW 15 20 8 11 - - 0.0
22/09:30am 21.9 20.1 13.3 58 5.0 W 15 28 8 15 - - 0.0
22/09:00am 22.4 19.5 14.0 59 4.9 WNW 22 33 12 18 - - 0.0
22/08:30am 23.6 20.6 12.0 48 6.6 NW 19 28 10 15 - - 0.0
22/08:00am 25.4 19.7 6.6 30 9.8 N 26 43 14 23 - - 0.0
22/07:30am 24.7 19.0 6.9 32 9.3 N 26 35 14 19 - - 0.0
22/07:00am 24.1 20.2 7.3 34 8.8 NNE 17 24 9 13 - - 0.0
22/06:30am 23.7 20.0 7.8 36 8.4 N 17 24 9 13 - - 0.0
22/06:00am 23.6 19.6 8.1 37 8.2 NNE 19 28 10 15 - - 0.0
22/05:30am 23.3 20.2 9.0 40 7.7 N 15 22 8 12 - - 0.0
22/05:00am 24.3 19.6 9.1 38 8.2 N 24 35 13 19 - - 0.0
22/04:30am 23.5 20.0 8.8 39 7.9 N 17 24 9 13 - - 0.0
22/04:00am 23.1 19.0 11.5 48 6.5 N 24 33 13 18 - - 0.0
22/03:30am 22.7 18.9 9.1 42 7.3 N 19 32 10 17 - - 0.0
22/03:00am 22.8 19.1 9.6 43 7.2 N 19 28 10 15 - - 0.0
22/02:30am 22.3 20.1 9.5 44 6.9 N 11 17 6 9 - - 0.0
22/02:00am 22.9 20.5 7.1 36 8.2 NNW 9 13 5 7 - - 0.0
22/01:30am 22.1 21.8 8.6 42 7.2 CALM 0 2 0 1 - - 0.0
22/01:00am 23.9 21.5 7.1 34 8.8 NNE 9 17 5 9 - - 0.0
22/12:30am 22.9 20.4 8.2 39 7.8 NE 11 17 6 9 - - 0.0
22/12:00am 22.1 20.5 8.2 41 7.3 NE 6 7 3 4 - - 0.0
 
Date/Time
CDT
Temp
°C
App
Temp
°C
Dew
Point
°C
Rel
Hum
%
Delta-T
°C
Wind Press
QNH
hPa
Press
MSL
hPa
Rain since
9am
mm
Dir  Spd
km/h
Gust
km/h
Spd
kts
Gust
kts
21/11:30pm 21.7 20.2 8.6 43 6.9 NE 6 9 3 5 - - 0.0
21/11:00pm 21.2 20.9 8.8 45 6.6 CALM 0 2 0 1 - - 0.0
21/10:30pm 21.6 20.8 8.1 42 7.1 E 2 4 1 2 - - 0.0
21/10:00pm 22.1 20.3 7.9 40 7.4 ENE 7 9 4 5 - - 0.0
21/09:30pm 22.7 21.1 8.0 39 7.7 ENE 6 9 3 5 - - 0.0
21/09:00pm 23.5 22.2 7.6 36 8.3 N 4 6 2 3 - - 0.0
21/08:30pm 24.3 22.5 7.0 33 9.0 N 6 9 3 5 - - 0.0
21/08:00pm 24.9 22.9 7.1 32 9.3 N 7 11 4 6 - - 0.0
21/07:30pm 24.7 21.8 6.4 31 9.5 N 11 17 6 9 - - 0.0
21/07:00pm 25.6 22.2 5.8 28 10.2 N 13 19 7 10 - - 0.0
21/06:30pm 25.1 22.3 5.3 28 10.1 N 9 17 5 9 - - 0.0
21/06:00pm 24.9 21.9 6.1 30 9.7 N 11 20 6 11 - - 0.0
21/05:30pm 24.9 21.8 7.1 32 9.3 NNW 13 24 7 13 - - 0.0
21/05:00pm 24.9 21.7 8.4 35 8.9 NW 15 22 8 12 - - 0.0
21/04:30pm 24.5 21.3 8.5 36 8.6 N 15 24 8 13 - - 0.0

Latest Capital City Observations: Canberra | Sydney | Melbourne | Brisbane | Adelaide | Perth | Hobart | Darwin

Other formats

Comma delimited format used in spreadsheet applications
http://www.bom.gov.au/fwo/IDS60901/IDS60901.94808.axf

JavaScript Object Notation format (JSON) in row-major order
http://www.bom.gov.au/fwo/IDS60901/IDS60901.94808.json

Data quality

Most of these data are generated automatically and are frequently updated. Quality checks on data are not normally performed. It is possible for incorrect values to appear. Refer to information at About Latest Weather Observations and please check the disclaimer before using these data.